sensor_id;sensor_type;location;lat;lon;timestamp;P1;durP1;ratioP1;P2;durP2;ratioP2
64923;SDS011;51436;44.692;39.214;2022-07-22T00:02:02;7.13;;;2.83;;
64923;SDS011;51436;44.692;39.214;2022-07-22T00:04:28;8.13;;;2.47;;
64923;SDS011;51436;44.692;39.214;2022-07-22T00:06:55;13.88;;;2.65;;
64923;SDS011;51436;44.692;39.214;2022-07-22T00:09:21;9.60;;;2.20;;
64923;SDS011;51436;44.692;39.214;2022-07-22T00:11:48;10.95;;;3.15;;
64923;SDS011;51436;44.692;39.214;2022-07-22T00:14:14;5.85;;;2.92;;
64923;SDS011;51436;44.692;39.214;2022-07-22T00:16:41;5.38;;;2.30;;
64923;SDS011;51436;44.692;39.214;2022-07-22T00:19:08;10.43;;;2.40;;
64923;SDS011;51436;44.692;39.214;2022-07-22T00:21:35;15.30;;;3.45;;
64923;SDS011;51436;44.692;39.214;2022-07-22T00:24:02;9.07;;;2.65;;
64923;SDS011;51436;44.692;39.214;2022-07-22T00:26:30;7.97;;;2.50;;
64923;SDS011;51436;44.692;39.214;2022-07-22T00:28:57;12.48;;;3.03;;
64923;SDS011;51436;44.692;39.214;2022-07-22T00:31:27;12.88;;;2.55;;
64923;SDS011;51436;44.692;39.214;2022-07-22T00:33:53;13.55;;;2.55;;
64923;SDS011;51436;44.692;39.214;2022-07-22T00:36:20;5.38;;;2.42;;
64923;SDS011;51436;44.692;39.214;2022-07-22T00:38:46;8.80;;;2.20;;
64923;SDS011;51436;44.692;39.214;2022-07-22T00:41:13;15.95;;;3.08;;
64923;SDS011;51436;44.692;39.214;2022-07-22T00:43:59;9.68;;;2.53;;
64923;SDS011;51436;44.692;39.214;2022-07-22T00:46:35;4.30;;;2.20;;
64923;SDS011;51436;44.692;39.214;2022-07-22T00:49:04;11.80;;;3.45;;
64923;SDS011;51436;44.692;39.214;2022-07-22T00:51:31;13.85;;;4.25;;
64923;SDS011;51436;44.692;39.214;2022-07-22T00:53:59;14.13;;;3.60;;
64923;SDS011;51436;44.692;39.214;2022-07-22T00:56:28;30.77;;;4.88;;
64923;SDS011;51436;44.692;39.214;2022-07-22T00:58:56;19.88;;;4.10;;
64923;SDS011;51436;44.692;39.214;2022-07-22T01:01:24;20.58;;;3.40;;
64923;SDS011;51436;44.692;39.214;2022-07-22T01:03:50;20.27;;;3.75;;
64923;SDS011;51436;44.692;39.214;2022-07-22T01:06:20;12.02;;;3.20;;
64923;SDS011;51436;44.692;39.214;2022-07-22T01:08:46;10.00;;;2.67;;
64923;SDS011;51436;44.692;39.214;2022-07-22T01:11:22;6.45;;;2.40;;
64923;SDS011;51436;44.692;39.214;2022-07-22T01:13:49;11.73;;;1.90;;
64923;SDS011;51436;44.692;39.214;2022-07-22T01:16:17;7.55;;;1.83;;
64923;SDS011;51436;44.692;39.214;2022-07-22T01:18:44;5.13;;;1.67;;
64923;SDS011;51436;44.692;39.214;2022-07-22T01:21:11;6.38;;;2.10;;
64923;SDS011;51436;44.692;39.214;2022-07-22T01:23:42;15.43;;;1.90;;
64923;SDS011;51436;44.692;39.214;2022-07-22T01:26:08;3.10;;;1.88;;
64923;SDS011;51436;44.692;39.214;2022-07-22T01:28:36;3.58;;;1.67;;
64923;SDS011;51436;44.692;39.214;2022-07-22T01:31:03;1.92;;;1.70;;
64923;SDS011;51436;44.692;39.214;2022-07-22T01:33:32;9.10;;;1.80;;
64923;SDS011;51436;44.692;39.214;2022-07-22T01:36:00;3.78;;;1.90;;
64923;SDS011;51436;44.692;39.214;2022-07-22T01:38:27;14.50;;;2.10;;
64923;SDS011;51436;44.692;39.214;2022-07-22T01:40:53;6.05;;;1.95;;
64923;SDS011;51436;44.692;39.214;2022-07-22T01:43:21;3.45;;;2.10;;
64923;SDS011;51436;44.692;39.214;2022-07-22T01:45:49;5.60;;;2.00;;
64923;SDS011;51436;44.692;39.214;2022-07-22T01:48:20;11.20;;;1.90;;
64923;SDS011;51436;44.692;39.214;2022-07-22T01:50:47;5.88;;;1.80;;
64923;SDS011;51436;44.692;39.214;2022-07-22T01:53:15;5.35;;;1.90;;
64923;SDS011;51436;44.692;39.214;2022-07-22T01:55:43;9.70;;;1.70;;
64923;SDS011;51436;44.692;39.214;2022-07-22T01:58:10;5.55;;;1.88;;
64923;SDS011;51436;44.692;39.214;2022-07-22T02:00:37;5.95;;;1.85;;
64923;SDS011;51436;44.692;39.214;2022-07-22T02:03:05;3.50;;;2.35;;
64923;SDS011;51436;44.692;39.214;2022-07-22T02:05:32;6.15;;;2.30;;
64923;SDS011;51436;44.692;39.214;2022-07-22T02:08:08;2.97;;;1.70;;
64923;SDS011;51436;44.692;39.214;2022-07-22T02:10:58;9.15;;;2.80;;
64923;SDS011;51436;44.692;39.214;2022-07-22T02:13:25;10.70;;;2.30;;
64923;SDS011;51436;44.692;39.214;2022-07-22T02:15:51;3.15;;;1.80;;
64923;SDS011;51436;44.692;39.214;2022-07-22T02:18:21;7.60;;;2.20;;
64923;SDS011;51436;44.692;39.214;2022-07-22T02:20:48;5.78;;;2.17;;
64923;SDS011;51436;44.692;39.214;2022-07-22T02:23:14;8.05;;;2.10;;
64923;SDS011;51436;44.692;39.214;2022-07-22T02:25:41;4.57;;;2.08;;
64923;SDS011;51436;44.692;39.214;2022-07-22T02:28:09;7.35;;;2.35;;
64923;SDS011;51436;44.692;39.214;2022-07-22T02:30:36;4.70;;;2.42;;
64923;SDS011;51436;44.692;39.214;2022-07-22T02:33:06;11.43;;;1.92;;
64923;SDS011;51436;44.692;39.214;2022-07-22T02:35:32;9.73;;;2.05;;
64923;SDS011;51436;44.692;39.214;2022-07-22T02:38:01;2.22;;;1.48;;
64923;SDS011;51436;44.692;39.214;2022-07-22T02:40:27;6.30;;;1.70;;
64923;SDS011;51436;44.692;39.214;2022-07-22T02:42:54;5.32;;;1.63;;
64923;SDS011;51436;44.692;39.214;2022-07-22T02:45:27;3.97;;;2.08;;
64923;SDS011;51436;44.692;39.214;2022-07-22T02:47:55;7.53;;;1.67;;
64923;SDS011;51436;44.692;39.214;2022-07-22T02:50:33;6.57;;;1.42;;
64923;SDS011;51436;44.692;39.214;2022-07-22T02:53:01;8.05;;;1.67;;
64923;SDS011;51436;44.692;39.214;2022-07-22T02:55:32;6.07;;;1.42;;
64923;SDS011;51436;44.692;39.214;2022-07-22T02:58:06;11.32;;;1.60;;
64923;SDS011;51436;44.692;39.214;2022-07-22T03:00:34;1.88;;;1.38;;
64923;SDS011;51436;44.692;39.214;2022-07-22T03:03:04;3.20;;;1.77;;
64923;SDS011;51436;44.692;39.214;2022-07-22T03:05:32;2.75;;;1.48;;
64923;SDS011;51436;44.692;39.214;2022-07-22T03:08:22;2.95;;;1.30;;
64923;SDS011;51436;44.692;39.214;2022-07-22T03:10:49;9.32;;;1.50;;
64923;SDS011;51436;44.692;39.214;2022-07-22T03:13:16;4.65;;;1.35;;
64923;SDS011;51436;44.692;39.214;2022-07-22T03:15:48;4.83;;;1.30;;
64923;SDS011;51436;44.692;39.214;2022-07-22T03:18:14;3.83;;;1.65;;
64923;SDS011;51436;44.692;39.214;2022-07-22T03:20:45;4.10;;;1.70;;
64923;SDS011;51436;44.692;39.214;2022-07-22T03:23:11;5.70;;;1.90;;
64923;SDS011;51436;44.692;39.214;2022-07-22T03:25:38;4.45;;;2.28;;
64923;SDS011;51436;44.692;39.214;2022-07-22T03:28:05;4.00;;;2.30;;
64923;SDS011;51436;44.692;39.214;2022-07-22T03:30:35;11.18;;;3.47;;
64923;SDS011;51436;44.692;39.214;2022-07-22T03:33:02;10.93;;;3.78;;
64923;SDS011;51436;44.692;39.214;2022-07-22T03:35:33;6.68;;;3.47;;
64923;SDS011;51436;44.692;39.214;2022-07-22T03:38:00;10.70;;;2.70;;
64923;SDS011;51436;44.692;39.214;2022-07-22T03:40:28;5.30;;;2.50;;
64923;SDS011;51436;44.692;39.214;2022-07-22T03:42:58;4.43;;;2.60;;
64923;SDS011;51436;44.692;39.214;2022-07-22T03:45:24;4.45;;;2.45;;
64923;SDS011;51436;44.692;39.214;2022-07-22T03:47:57;4.45;;;2.30;;
64923;SDS011;51436;44.692;39.214;2022-07-22T03:50:26;3.20;;;2.38;;
64923;SDS011;51436;44.692;39.214;2022-07-22T03:52:54;2.80;;;2.33;;
64923;SDS011;51436;44.692;39.214;2022-07-22T03:55:20;7.43;;;2.00;;
64923;SDS011;51436;44.692;39.214;2022-07-22T03:57:53;6.10;;;2.15;;
64923;SDS011;51436;44.692;39.214;2022-07-22T04:00:24;3.13;;;1.95;;
64923;SDS011;51436;44.692;39.214;2022-07-22T04:02:53;2.85;;;1.98;;
64923;SDS011;51436;44.692;39.214;2022-07-22T04:05:48;6.82;;;2.03;;
64923;SDS011;51436;44.692;39.214;2022-07-22T04:08:24;5.10;;;1.98;;
64923;SDS011;51436;44.692;39.214;2022-07-22T04:10:54;4.75;;;1.90;;
64923;SDS011;51436;44.692;39.214;2022-07-22T04:13:36;9.20;;;2.40;;
64923;SDS011;51436;44.692;39.214;2022-07-22T04:16:02;1.80;;;1.70;;
64923;SDS011;51436;44.692;39.214;2022-07-22T04:18:31;4.53;;;2.75;;
64923;SDS011;51436;44.692;39.214;2022-07-22T04:20:58;11.40;;;4.28;;
64923;SDS011;51436;44.692;39.214;2022-07-22T04:23:57;11.38;;;5.00;;
64923;SDS011;51436;44.692;39.214;2022-07-22T04:26:27;14.02;;;5.15;;
64923;SDS011;51436;44.692;39.214;2022-07-22T04:28:54;7.63;;;5.63;;
64923;SDS011;51436;44.692;39.214;2022-07-22T04:31:21;10.13;;;4.82;;
64923;SDS011;51436;44.692;39.214;2022-07-22T04:33:54;12.40;;;3.53;;
64923;SDS011;51436;44.692;39.214;2022-07-22T04:36:21;11.68;;;4.03;;
64923;SDS011;51436;44.692;39.214;2022-07-22T04:38:49;12.32;;;4.45;;
64923;SDS011;51436;44.692;39.214;2022-07-22T04:41:15;11.65;;;4.03;;
64923;SDS011;51436;44.692;39.214;2022-07-22T04:43:44;7.25;;;2.80;;
64923;SDS011;51436;44.692;39.214;2022-07-22T04:46:13;6.53;;;2.17;;
64923;SDS011;51436;44.692;39.214;2022-07-22T04:48:42;4.03;;;2.28;;
64923;SDS011;51436;44.692;39.214;2022-07-22T04:51:08;4.03;;;2.15;;
64923;SDS011;51436;44.692;39.214;2022-07-22T04:53:36;4.03;;;2.17;;
64923;SDS011;51436;44.692;39.214;2022-07-22T04:56:25;5.85;;;2.55;;
64923;SDS011;51436;44.692;39.214;2022-07-22T04:58:57;7.25;;;2.22;;
64923;SDS011;51436;44.692;39.214;2022-07-22T05:01:28;6.97;;;3.70;;
64923;SDS011;51436;44.692;39.214;2022-07-22T05:03:55;6.75;;;4.00;;
64923;SDS011;51436;44.692;39.214;2022-07-22T05:06:22;8.68;;;4.35;;
64923;SDS011;51436;44.692;39.214;2022-07-22T05:08:51;10.07;;;3.95;;
64923;SDS011;51436;44.692;39.214;2022-07-22T05:11:19;7.18;;;4.38;;
64923;SDS011;51436;44.692;39.214;2022-07-22T05:13:46;13.93;;;6.57;;
64923;SDS011;51436;44.692;39.214;2022-07-22T05:16:14;14.93;;;6.55;;
64923;SDS011;51436;44.692;39.214;2022-07-22T05:18:40;9.77;;;6.70;;
64923;SDS011;51436;44.692;39.214;2022-07-22T05:21:17;14.65;;;5.30;;
64923;SDS011;51436;44.692;39.214;2022-07-22T05:23:46;9.80;;;5.03;;
64923;SDS011;51436;44.692;39.214;2022-07-22T05:26:14;6.97;;;3.38;;
64923;SDS011;51436;44.692;39.214;2022-07-22T05:28:40;9.43;;;3.75;;
64923;SDS011;51436;44.692;39.214;2022-07-22T05:31:07;5.70;;;3.40;;
64923;SDS011;51436;44.692;39.214;2022-07-22T05:33:36;10.88;;;2.90;;
64923;SDS011;51436;44.692;39.214;2022-07-22T05:36:10;3.30;;;2.38;;
64923;SDS011;51436;44.692;39.214;2022-07-22T05:38:44;2.78;;;1.80;;
64923;SDS011;51436;44.692;39.214;2022-07-22T05:41:12;3.58;;;2.13;;
64923;SDS011;51436;44.692;39.214;2022-07-22T05:43:38;4.35;;;1.77;;
64923;SDS011;51436;44.692;39.214;2022-07-22T05:46:13;2.40;;;1.95;;
64923;SDS011;51436;44.692;39.214;2022-07-22T05:48:41;4.20;;;2.78;;
64923;SDS011;51436;44.692;39.214;2022-07-22T05:51:11;5.28;;;2.75;;
64923;SDS011;51436;44.692;39.214;2022-07-22T05:53:39;4.00;;;2.00;;
64923;SDS011;51436;44.692;39.214;2022-07-22T05:56:08;2.53;;;1.95;;
64923;SDS011;51436;44.692;39.214;2022-07-22T05:58:45;5.22;;;1.98;;
64923;SDS011;51436;44.692;39.214;2022-07-22T06:01:12;2.20;;;1.67;;
64923;SDS011;51436;44.692;39.214;2022-07-22T06:03:38;3.22;;;1.60;;
64923;SDS011;51436;44.692;39.214;2022-07-22T06:06:11;3.17;;;1.50;;
64923;SDS011;51436;44.692;39.214;2022-07-22T06:08:44;6.00;;;2.00;;
64923;SDS011;51436;44.692;39.214;2022-07-22T06:11:13;12.35;;;1.80;;
64923;SDS011;51436;44.692;39.214;2022-07-22T06:13:39;4.43;;;2.40;;
64923;SDS011;51436;44.692;39.214;2022-07-22T06:16:24;2.85;;;1.73;;
64923;SDS011;51436;44.692;39.214;2022-07-22T06:18:55;1.48;;;1.38;;
64923;SDS011;51436;44.692;39.214;2022-07-22T06:21:25;2.40;;;1.55;;
64923;SDS011;51436;44.692;39.214;2022-07-22T06:23:51;3.13;;;1.20;;
64923;SDS011;51436;44.692;39.214;2022-07-22T06:26:20;5.18;;;2.55;;
64923;SDS011;51436;44.692;39.214;2022-07-22T06:28:47;9.23;;;1.70;;
64923;SDS011;51436;44.692;39.214;2022-07-22T06:31:13;5.78;;;1.85;;
64923;SDS011;51436;44.692;39.214;2022-07-22T06:33:41;2.95;;;1.70;;
64923;SDS011;51436;44.692;39.214;2022-07-22T06:36:08;7.38;;;1.77;;
64923;SDS011;51436;44.692;39.214;2022-07-22T06:38:55;2.00;;;1.80;;
64923;SDS011;51436;44.692;39.214;2022-07-22T06:41:41;1.95;;;1.50;;
64923;SDS011;51436;44.692;39.214;2022-07-22T06:44:33;1.30;;;1.20;;
64923;SDS011;51436;44.692;39.214;2022-07-22T06:47:22;2.33;;;1.70;;
64923;SDS011;51436;44.692;39.214;2022-07-22T06:49:49;4.25;;;1.25;;
64923;SDS011;51436;44.692;39.214;2022-07-22T06:52:15;2.53;;;1.63;;
64923;SDS011;51436;44.692;39.214;2022-07-22T06:54:41;2.40;;;1.10;;
64923;SDS011;51436;44.692;39.214;2022-07-22T06:57:13;2.33;;;1.33;;
64923;SDS011;51436;44.692;39.214;2022-07-22T06:59:42;4.20;;;1.30;;
64923;SDS011;51436;44.692;39.214;2022-07-22T07:02:09;2.45;;;1.00;;
64923;SDS011;51436;44.692;39.214;2022-07-22T07:04:36;1.75;;;1.25;;
64923;SDS011;51436;44.692;39.214;2022-07-22T07:07:26;6.82;;;1.40;;
64923;SDS011;51436;44.692;39.214;2022-07-22T07:09:59;5.20;;;1.13;;
64923;SDS011;51436;44.692;39.214;2022-07-22T07:12:55;3.25;;;1.20;;
64923;SDS011;51436;44.692;39.214;2022-07-22T07:18:07;2.42;;;0.88;;
64923;SDS011;51436;44.692;39.214;2022-07-22T07:20:33;3.83;;;1.23;;
64923;SDS011;51436;44.692;39.214;2022-07-22T07:23:01;2.00;;;1.35;;
64923;SDS011;51436;44.692;39.214;2022-07-22T07:25:32;2.47;;;1.02;;
64923;SDS011;51436;44.692;39.214;2022-07-22T07:27:59;1.83;;;1.40;;
64923;SDS011;51436;44.692;39.214;2022-07-22T07:30:44;1.13;;;0.90;;
64923;SDS011;51436;44.692;39.214;2022-07-22T07:33:12;3.05;;;0.80;;
64923;SDS011;51436;44.692;39.214;2022-07-22T07:35:39;6.68;;;1.00;;
64923;SDS011;51436;44.692;39.214;2022-07-22T07:38:06;14.93;;;0.90;;
64923;SDS011;51436;44.692;39.214;2022-07-22T07:43:32;1.95;;;1.10;;
64923;SDS011;51436;44.692;39.214;2022-07-22T07:46:00;1.98;;;0.88;;
64923;SDS011;51436;44.692;39.214;2022-07-22T07:48:27;10.52;;;1.10;;
64923;SDS011;51436;44.692;39.214;2022-07-22T07:50:54;1.33;;;1.23;;
64923;SDS011;51436;44.692;39.214;2022-07-22T07:53:20;2.05;;;1.40;;
64923;SDS011;51436;44.692;39.214;2022-07-22T07:55:47;1.75;;;0.93;;
64923;SDS011;51436;44.692;39.214;2022-07-22T07:58:13;1.20;;;1.20;;
64923;SDS011;51436;44.692;39.214;2022-07-22T08:00:41;4.68;;;1.23;;
64923;SDS011;51436;44.692;39.214;2022-07-22T08:03:09;2.03;;;1.10;;
64923;SDS011;51436;44.692;39.214;2022-07-22T08:05:37;2.40;;;1.40;;
64923;SDS011;51436;44.692;39.214;2022-07-22T08:08:13;2.13;;;1.30;;
64923;SDS011;51436;44.692;39.214;2022-07-22T08:10:42;1.13;;;1.13;;
64923;SDS011;51436;44.692;39.214;2022-07-22T08:13:12;1.50;;;1.40;;
64923;SDS011;51436;44.692;39.214;2022-07-22T08:15:38;2.13;;;1.42;;
64923;SDS011;51436;44.692;39.214;2022-07-22T08:18:08;1.50;;;1.40;;
64923;SDS011;51436;44.692;39.214;2022-07-22T08:20:34;6.63;;;1.70;;
64923;SDS011;51436;44.692;39.214;2022-07-22T08:23:01;11.93;;;1.52;;
64923;SDS011;51436;44.692;39.214;2022-07-22T08:25:30;3.35;;;1.90;;
64923;SDS011;51436;44.692;39.214;2022-07-22T08:28:00;2.50;;;1.55;;
64923;SDS011;51436;44.692;39.214;2022-07-22T08:30:27;3.53;;;1.63;;
64923;SDS011;51436;44.692;39.214;2022-07-22T08:33:07;3.80;;;1.80;;
64923;SDS011;51436;44.692;39.214;2022-07-22T08:35:36;4.25;;;1.80;;
64923;SDS011;51436;44.692;39.214;2022-07-22T08:38:02;1.77;;;1.38;;
64923;SDS011;51436;44.692;39.214;2022-07-22T08:40:30;5.13;;;1.73;;
64923;SDS011;51436;44.692;39.214;2022-07-22T08:42:59;4.43;;;1.65;;
64923;SDS011;51436;44.692;39.214;2022-07-22T08:45:30;1.90;;;1.70;;
64923;SDS011;51436;44.692;39.214;2022-07-22T08:47:57;4.00;;;1.38;;
64923;SDS011;51436;44.692;39.214;2022-07-22T08:51:12;1.70;;;1.52;;
64923;SDS011;51436;44.692;39.214;2022-07-22T08:56:27;6.47;;;3.22;;
64923;SDS011;51436;44.692;39.214;2022-07-22T08:58:55;2.38;;;1.77;;
64923;SDS011;51436;44.692;39.214;2022-07-22T09:01:22;3.17;;;1.70;;
64923;SDS011;51436;44.692;39.214;2022-07-22T09:03:54;7.10;;;1.63;;
64923;SDS011;51436;44.692;39.214;2022-07-22T09:06:26;6.50;;;2.10;;
64923;SDS011;51436;44.692;39.214;2022-07-22T09:09:00;7.93;;;1.77;;
64923;SDS011;51436;44.692;39.214;2022-07-22T09:11:48;7.45;;;1.90;;
64923;SDS011;51436;44.692;39.214;2022-07-22T09:14:47;2.03;;;1.60;;
64923;SDS011;51436;44.692;39.214;2022-07-22T09:17:34;16.75;;;1.80;;
64923;SDS011;51436;44.692;39.214;2022-07-22T09:20:21;5.95;;;2.33;;
64923;SDS011;51436;44.692;39.214;2022-07-22T09:23:18;3.72;;;1.80;;
64923;SDS011;51436;44.692;39.214;2022-07-22T09:25:49;2.13;;;1.75;;
64923;SDS011;51436;44.692;39.214;2022-07-22T09:28:21;3.33;;;1.95;;
64923;SDS011;51436;44.692;39.214;2022-07-22T09:31:28;4.55;;;1.90;;
64923;SDS011;51436;44.692;39.214;2022-07-22T09:34:12;3.25;;;1.80;;
64923;SDS011;51436;44.692;39.214;2022-07-22T09:37:04;4.78;;;1.95;;
64923;SDS011;51436;44.692;39.214;2022-07-22T09:39:33;5.35;;;1.70;;
64923;SDS011;51436;44.692;39.214;2022-07-22T09:42:05;2.75;;;1.70;;
64923;SDS011;51436;44.692;39.214;2022-07-22T09:44:33;6.90;;;1.70;;
64923;SDS011;51436;44.692;39.214;2022-07-22T09:47:33;3.10;;;1.60;;
64923;SDS011;51436;44.692;39.214;2022-07-22T09:50:30;5.15;;;1.60;;
64923;SDS011;51436;44.692;39.214;2022-07-22T09:53:13;1.98;;;1.27;;
64923;SDS011;51436;44.692;39.214;2022-07-22T09:55:45;1.98;;;1.58;;
64923;SDS011;51436;44.692;39.214;2022-07-22T09:58:14;3.95;;;1.70;;
64923;SDS011;51436;44.692;39.214;2022-07-22T10:00:42;3.35;;;1.63;;
64923;SDS011;51436;44.692;39.214;2022-07-22T10:03:45;10.60;;;1.27;;
64923;SDS011;51436;44.692;39.214;2022-07-22T10:06:06;2.47;;;1.08;;
64923;SDS011;51436;44.692;39.214;2022-07-22T10:08:36;1.77;;;1.20;;
64923;SDS011;51436;44.692;39.214;2022-07-22T10:11:04;3.80;;;1.40;;
64923;SDS011;51436;44.692;39.214;2022-07-22T10:13:32;1.35;;;1.10;;
64923;SDS011;51436;44.692;39.214;2022-07-22T10:16:05;2.00;;;1.45;;
64923;SDS011;51436;44.692;39.214;2022-07-22T10:18:33;4.07;;;1.70;;
64923;SDS011;51436;44.692;39.214;2022-07-22T10:21:06;1.83;;;1.38;;
64923;SDS011;51436;44.692;39.214;2022-07-22T10:23:35;5.53;;;1.38;;
64923;SDS011;51436;44.692;39.214;2022-07-22T10:26:04;2.25;;;1.50;;
64923;SDS011;51436;44.692;39.214;2022-07-22T10:28:32;7.95;;;1.60;;
64923;SDS011;51436;44.692;39.214;2022-07-22T10:31:21;2.28;;;1.52;;
64923;SDS011;51436;44.692;39.214;2022-07-22T10:33:51;7.22;;;1.55;;
64923;SDS011;51436;44.692;39.214;2022-07-22T10:36:33;6.13;;;1.35;;
64923;SDS011;51436;44.692;39.214;2022-07-22T10:41:38;3.42;;;1.33;;
64923;SDS011;51436;44.692;39.214;2022-07-22T10:44:08;1.48;;;1.30;;
64923;SDS011;51436;44.692;39.214;2022-07-22T10:46:47;3.25;;;1.45;;
64923;SDS011;51436;44.692;39.214;2022-07-22T10:49:18;7.35;;;1.20;;
64923;SDS011;51436;44.692;39.214;2022-07-22T10:57:39;5.93;;;1.02;;
64923;SDS011;51436;44.692;39.214;2022-07-22T11:00:05;5.00;;;1.58;;
64923;SDS011;51436;44.692;39.214;2022-07-22T11:02:33;4.63;;;1.83;;
64923;SDS011;51436;44.692;39.214;2022-07-22T11:05:02;3.20;;;1.60;;
64923;SDS011;51436;44.692;39.214;2022-07-22T11:07:43;3.95;;;1.20;;
64923;SDS011;51436;44.692;39.214;2022-07-22T11:10:18;9.00;;;1.42;;
64923;SDS011;51436;44.692;39.214;2022-07-22T11:12:47;1.50;;;1.40;;
64923;SDS011;51436;44.692;39.214;2022-07-22T11:15:14;4.15;;;1.88;;
64923;SDS011;51436;44.692;39.214;2022-07-22T11:17:55;3.33;;;1.50;;
64923;SDS011;51436;44.692;39.214;2022-07-22T11:20:23;8.98;;;1.70;;
64923;SDS011;51436;44.692;39.214;2022-07-22T11:22:56;3.67;;;1.33;;
64923;SDS011;51436;44.692;39.214;2022-07-22T11:25:22;6.45;;;1.67;;
64923;SDS011;51436;44.692;39.214;2022-07-22T11:27:52;2.20;;;1.00;;
64923;SDS011;51436;44.692;39.214;2022-07-22T11:30:19;2.13;;;1.40;;
64923;SDS011;51436;44.692;39.214;2022-07-22T11:32:47;2.30;;;1.30;;
64923;SDS011;51436;44.692;39.214;2022-07-22T11:35:14;1.50;;;1.20;;
64923;SDS011;51436;44.692;39.214;2022-07-22T11:37:40;7.35;;;2.70;;
64923;SDS011;51436;44.692;39.214;2022-07-22T11:40:08;4.50;;;1.48;;
64923;SDS011;51436;44.692;39.214;2022-07-22T11:42:37;5.47;;;1.90;;
64923;SDS011;51436;44.692;39.214;2022-07-22T11:45:04;7.13;;;1.80;;
64923;SDS011;51436;44.692;39.214;2022-07-22T11:47:30;9.95;;;1.42;;
64923;SDS011;51436;44.692;39.214;2022-07-22T11:49:57;3.92;;;1.75;;
64923;SDS011;51436;44.692;39.214;2022-07-22T11:52:25;5.05;;;1.65;;
64923;SDS011;51436;44.692;39.214;2022-07-22T11:54:52;12.93;;;1.60;;
64923;SDS011;51436;44.692;39.214;2022-07-22T11:57:18;10.45;;;2.08;;
64923;SDS011;51436;44.692;39.214;2022-07-22T11:59:44;3.42;;;1.40;;
64923;SDS011;51436;44.692;39.214;2022-07-22T12:02:13;3.65;;;1.30;;
64923;SDS011;51436;44.692;39.214;2022-07-22T12:04:40;1.75;;;1.60;;
64923;SDS011;51436;44.692;39.214;2022-07-22T12:07:07;7.15;;;1.70;;
64923;SDS011;51436;44.692;39.214;2022-07-22T12:09:37;5.47;;;1.73;;
64923;SDS011;51436;44.692;39.214;2022-07-22T12:12:04;3.55;;;1.52;;
64923;SDS011;51436;44.692;39.214;2022-07-22T12:14:32;4.20;;;1.40;;
64923;SDS011;51436;44.692;39.214;2022-07-22T12:19:33;11.07;;;2.00;;
64923;SDS011;51436;44.692;39.214;2022-07-22T12:22:08;8.80;;;1.77;;
64923;SDS011;51436;44.692;39.214;2022-07-22T12:24:45;8.93;;;1.63;;
64923;SDS011;51436;44.692;39.214;2022-07-22T12:27:22;4.38;;;1.50;;
64923;SDS011;51436;44.692;39.214;2022-07-22T12:30:13;3.05;;;0.98;;
64923;SDS011;51436;44.692;39.214;2022-07-22T12:32:46;1.98;;;1.23;;
64923;SDS011;51436;44.692;39.214;2022-07-22T12:35:14;7.68;;;1.33;;
64923;SDS011;51436;44.692;39.214;2022-07-22T12:37:44;3.33;;;1.20;;
64923;SDS011;51436;44.692;39.214;2022-07-22T12:40:18;4.60;;;1.70;;
64923;SDS011;51436;44.692;39.214;2022-07-22T12:43:05;10.65;;;1.67;;
64923;SDS011;51436;44.692;39.214;2022-07-22T12:45:35;8.05;;;1.40;;
64923;SDS011;51436;44.692;39.214;2022-07-22T12:53:08;6.45;;;1.70;;
64923;SDS011;51436;44.692;39.214;2022-07-22T12:55:37;5.15;;;1.75;;
64923;SDS011;51436;44.692;39.214;2022-07-22T12:58:05;8.60;;;1.83;;
64923;SDS011;51436;44.692;39.214;2022-07-22T13:00:33;5.68;;;1.65;;
64923;SDS011;51436;44.692;39.214;2022-07-22T13:03:02;4.22;;;1.23;;
64923;SDS011;51436;44.692;39.214;2022-07-22T13:05:29;4.78;;;1.58;;
64923;SDS011;51436;44.692;39.214;2022-07-22T13:07:56;2.42;;;2.00;;
64923;SDS011;51436;44.692;39.214;2022-07-22T13:10:23;7.97;;;1.75;;
64923;SDS011;51436;44.692;39.214;2022-07-22T13:12:51;2.97;;;1.80;;
64923;SDS011;51436;44.692;39.214;2022-07-22T13:15:18;10.20;;;1.70;;
64923;SDS011;51436;44.692;39.214;2022-07-22T13:17:45;3.05;;;1.45;;
64923;SDS011;51436;44.692;39.214;2022-07-22T13:20:13;10.43;;;1.33;;
64923;SDS011;51436;44.692;39.214;2022-07-22T13:22:45;5.30;;;1.70;;
64923;SDS011;51436;44.692;39.214;2022-07-22T13:25:11;3.65;;;1.63;;
64923;SDS011;51436;44.692;39.214;2022-07-22T13:27:38;8.60;;;1.90;;
64923;SDS011;51436;44.692;39.214;2022-07-22T13:30:05;3.08;;;1.70;;
64923;SDS011;51436;44.692;39.214;2022-07-22T13:32:32;4.63;;;1.33;;
64923;SDS011;51436;44.692;39.214;2022-07-22T13:34:59;10.25;;;1.65;;
64923;SDS011;51436;44.692;39.214;2022-07-22T13:37:25;3.35;;;1.33;;
64923;SDS011;51436;44.692;39.214;2022-07-22T13:39:52;3.33;;;1.38;;
64923;SDS011;51436;44.692;39.214;2022-07-22T13:42:18;1.67;;;1.15;;
64923;SDS011;51436;44.692;39.214;2022-07-22T13:44:45;2.33;;;1.30;;
64923;SDS011;51436;44.692;39.214;2022-07-22T13:47:13;8.30;;;1.70;;
64923;SDS011;51436;44.692;39.214;2022-07-22T13:49:40;1.73;;;1.50;;
64923;SDS011;51436;44.692;39.214;2022-07-22T13:52:07;5.45;;;1.58;;
64923;SDS011;51436;44.692;39.214;2022-07-22T13:54:33;8.98;;;1.50;;
64923;SDS011;51436;44.692;39.214;2022-07-22T13:57:00;2.28;;;1.10;;
64923;SDS011;51436;44.692;39.214;2022-07-22T13:59:27;4.97;;;1.30;;
64923;SDS011;51436;44.692;39.214;2022-07-22T14:01:55;1.33;;;1.17;;
64923;SDS011;51436;44.692;39.214;2022-07-22T14:04:22;4.60;;;1.15;;
64923;SDS011;51436;44.692;39.214;2022-07-22T14:06:49;6.10;;;1.30;;
64923;SDS011;51436;44.692;39.214;2022-07-22T14:09:16;2.47;;;0.98;;
64923;SDS011;51436;44.692;39.214;2022-07-22T14:11:43;3.28;;;1.20;;
64923;SDS011;51436;44.692;39.214;2022-07-22T14:14:09;5.63;;;2.13;;
64923;SDS011;51436;44.692;39.214;2022-07-22T14:16:35;8.57;;;2.38;;
64923;SDS011;51436;44.692;39.214;2022-07-22T14:21:39;7.43;;;1.45;;
64923;SDS011;51436;44.692;39.214;2022-07-22T14:24:08;7.53;;;2.42;;
64923;SDS011;51436;44.692;39.214;2022-07-22T14:26:37;6.00;;;1.90;;
64923;SDS011;51436;44.692;39.214;2022-07-22T14:29:07;5.93;;;1.30;;
64923;SDS011;51436;44.692;39.214;2022-07-22T14:31:34;7.47;;;1.67;;
64923;SDS011;51436;44.692;39.214;2022-07-22T14:34:01;6.55;;;1.25;;
64923;SDS011;51436;44.692;39.214;2022-07-22T14:36:27;1.95;;;1.00;;
64923;SDS011;51436;44.692;39.214;2022-07-22T14:38:53;7.85;;;1.25;;
64923;SDS011;51436;44.692;39.214;2022-07-22T14:41:21;4.72;;;1.20;;
64923;SDS011;51436;44.692;39.214;2022-07-22T14:43:47;1.95;;;1.30;;
64923;SDS011;51436;44.692;39.214;2022-07-22T14:46:16;10.57;;;1.25;;
64923;SDS011;51436;44.692;39.214;2022-07-22T14:48:42;3.25;;;1.15;;
64923;SDS011;51436;44.692;39.214;2022-07-22T14:51:09;2.13;;;1.02;;
64923;SDS011;51436;44.692;39.214;2022-07-22T14:53:36;7.45;;;1.20;;
64923;SDS011;51436;44.692;39.214;2022-07-22T14:56:02;3.35;;;1.25;;
64923;SDS011;51436;44.692;39.214;2022-07-22T14:58:29;6.00;;;1.50;;
64923;SDS011;51436;44.692;39.214;2022-07-22T15:00:55;3.47;;;1.08;;
64923;SDS011;51436;44.692;39.214;2022-07-22T15:03:27;10.80;;;1.50;;
64923;SDS011;51436;44.692;39.214;2022-07-22T15:05:53;2.30;;;1.00;;
64923;SDS011;51436;44.692;39.214;2022-07-22T15:08:19;11.27;;;1.42;;
64923;SDS011;51436;44.692;39.214;2022-07-22T15:10:47;3.30;;;1.30;;
64923;SDS011;51436;44.692;39.214;2022-07-22T15:13:13;4.40;;;1.33;;
64923;SDS011;51436;44.692;39.214;2022-07-22T15:15:39;12.02;;;1.40;;
64923;SDS011;51436;44.692;39.214;2022-07-22T15:18:07;4.57;;;1.40;;
64923;SDS011;51436;44.692;39.214;2022-07-22T15:20:34;4.68;;;1.48;;